Farmersville's Hourly Summary for Monday, May 14, 2018
Hour Temp
(f)
RH
(%)
Solar Rad.
(MJ/m2)
Rainfall
(in)
Wind
(mph)
5/14/2018 12:00 AM 74 75 0 0 1.01
5/14/2018 1:00 AM 73 77 0 0 1.42
5/14/2018 2:00 AM 73 77 0 0 1.51
5/14/2018 3:00 AM 73 79 0 0 0.59
5/14/2018 4:00 AM 72 80 0 0 0.27
5/14/2018 5:00 AM 70 85 0 0 0.15
5/14/2018 6:00 AM 69 100 0 0 0.43
5/14/2018 7:00 AM 70 100 0.02 0 1.15
5/14/2018 8:00 AM 71 100 0.34 0 2.79
5/14/2018 9:00 AM 73 99 0.86 0 4.26
5/14/2018 10:00 AM 75 75 1.01 0 6.09
5/14/2018 11:00 AM 77 70 1.47 0 7.68
5/14/2018 12:00 PM 80 64 2.5 0 7.32
5/14/2018 1:00 PM 81 62 2.19 0 6.66
5/14/2018 2:00 PM 83 58 2.28 0 5.4
5/14/2018 3:00 PM 84 56 2.01 0 5.28
5/14/2018 4:00 PM 85 52 2.2 0 5.25
5/14/2018 5:00 PM 86 52 1.59 0 4.56
5/14/2018 6:00 PM 86 52 1.54 0 4.62
5/14/2018 7:00 PM 84 55 0.85 0 4.19
5/14/2018 8:00 PM 81 60 0.17 0 3.21
5/14/2018 9:00 PM 78 65 0.01 0 1.55
5/14/2018 10:00 PM 76 71 0 0 0.5
5/14/2018 11:00 PM 76 75 0 0 1.41
Data Summary 77 72 19.04 0.00 3.22